首页
METAR-TAF:

METAR-TAF

机场 :

新奥尔良, 路易斯安那州, 美国

新奥尔良路易斯阿姆斯特朗国际机场

纬度: 29-59-34N, 经度: 090-15-03W, 海拔: 1米

当前天气观测

该预报发布于52分钟前的22:53 UTC
风速3节,风向北转西北
温度 6°C
湿度 36%
气压 1031 hPa
能見度: 16.1公里
天空无云

METAR: KMSY 182253Z 33003KT 10SM CLR 06/M08 A3044 RMK AO2 SLP312 T00561083

时间: 17:45 (23:45 UTC)

预报

该预报发布于21分钟前的23:24 UTC
预报有效从19日的 00点(UTC)到 20日的 06点(UTC)
风速节,风向
能見度: 10公里
天空无云
从 19日的 1800点(UTC)
风速5节,风向
能見度: 10公里
多云层高于11000英尺

TAF: KMSY 182324Z 1900/2006 00000KT P6SM SKC FM191800 10005KT P6SM BKN110

超过4000个机场的气象观测和天气预报(METAR&TAF报告)。

可查询的气象台以黄色和红色小点在地图上表示。

将鼠标移到小点上方,可查看气象台名称。

然后点击查看天气观测和预报。

如需切换地图:点击带黑十字的绿色按钮放大地图;点击带横线的绿色按钮缩小地图;或者点击绿色箭头查看邻近地区的地图。


METAR-TAF: